sensor_id;sensor_type;location;lat;lon;timestamp;pressure;altitude;pressure_sealevel;temperature;humidity
24762;BME280;12865;51.934;10.330;2023-01-27T00:02:15;99694.88;;;0.47;100.00
24762;BME280;12865;51.934;10.330;2023-01-27T00:05:01;99698.41;;;0.46;100.00
24762;BME280;12865;51.934;10.330;2023-01-27T00:07:46;99703.44;;;0.51;100.00
24762;BME280;12865;51.934;10.330;2023-01-27T00:10:32;99700.63;;;0.55;100.00
24762;BME280;12865;51.934;10.330;2023-01-27T00:13:18;99705.16;;;0.52;100.00
24762;BME280;12865;51.934;10.330;2023-01-27T00:16:12;99702.53;;;0.52;100.00
24762;BME280;12865;51.934;10.330;2023-01-27T00:18:58;99691.13;;;0.53;100.00
24762;BME280;12865;51.934;10.330;2023-01-27T00:21:47;99697.06;;;0.56;100.00
24762;BME280;12865;51.934;10.330;2023-01-27T00:24:51;99686.84;;;0.50;100.00
24762;BME280;12865;51.934;10.330;2023-01-27T00:27:37;99699.09;;;0.50;100.00
24762;BME280;12865;51.934;10.330;2023-01-27T00:30:22;99694.88;;;0.47;100.00
24762;BME280;12865;51.934;10.330;2023-01-27T00:33:08;99690.47;;;0.48;100.00
24762;BME280;12865;51.934;10.330;2023-01-27T00:36:09;99688.56;;;0.51;100.00
24762;BME280;12865;51.934;10.330;2023-01-27T00:38:55;99688.38;;;0.56;100.00
24762;BME280;12865;51.934;10.330;2023-01-27T00:41:41;99688.88;;;0.64;100.00
24762;BME280;12865;51.934;10.330;2023-01-27T00:44:26;99687.00;;;0.67;100.00
24762;BME280;12865;51.934;10.330;2023-01-27T00:47:12;99688.53;;;0.71;100.00
24762;BME280;12865;51.934;10.330;2023-01-27T00:49:58;99690.13;;;0.75;100.00
24762;BME280;12865;51.934;10.330;2023-01-27T00:52:44;99685.50;;;0.62;100.00
24762;BME280;12865;51.934;10.330;2023-01-27T00:55:29;99689.16;;;0.58;100.00
24762;BME280;12865;51.934;10.330;2023-01-27T00:58:15;99696.03;;;0.60;100.00
24762;BME280;12865;51.934;10.330;2023-01-27T01:01:03;99696.03;;;0.60;100.00
24762;BME280;12865;51.934;10.330;2023-01-27T01:03:49;99692.44;;;0.63;100.00
24762;BME280;12865;51.934;10.330;2023-01-27T01:06:35;99695.66;;;0.69;100.00
24762;BME280;12865;51.934;10.330;2023-01-27T01:09:21;99692.44;;;0.63;100.00
24762;BME280;12865;51.934;10.330;2023-01-27T01:12:06;99696.28;;;0.74;100.00
24762;BME280;12865;51.934;10.330;2023-01-27T01:17:20;99693.69;;;0.74;100.00
24762;BME280;12865;51.934;10.330;2023-01-27T01:20:06;99688.75;;;0.67;100.00
24762;BME280;12865;51.934;10.330;2023-01-27T01:22:52;99694.66;;;0.72;100.00
24762;BME280;12865;51.934;10.330;2023-01-27T01:25:38;99708.69;;;0.71;100.00
24762;BME280;12865;51.934;10.330;2023-01-27T01:28:24;99703.44;;;0.71;100.00
24762;BME280;12865;51.934;10.330;2023-01-27T01:31:12;99710.97;;;0.78;100.00
24762;BME280;12865;51.934;10.330;2023-01-27T01:33:58;99716.44;;;0.74;100.00
24762;BME280;12865;51.934;10.330;2023-01-27T01:36:44;99711.97;;;0.76;100.00
24762;BME280;12865;51.934;10.330;2023-01-27T01:39:30;99712.28;;;0.89;100.00
24762;BME280;12865;51.934;10.330;2023-01-27T01:42:16;99707.84;;;0.91;100.00
24762;BME280;12865;51.934;10.330;2023-01-27T01:48:28;99706.25;;;0.87;100.00
24762;BME280;12865;51.934;10.330;2023-01-27T01:51:20;99715.97;;;1.05;100.00
24762;BME280;12865;51.934;10.330;2023-01-27T01:54:13;99717.66;;;0.86;100.00
24762;BME280;12865;51.934;10.330;2023-01-27T01:57:07;99719.50;;;1.04;100.00
24762;BME280;12865;51.934;10.330;2023-01-27T02:00:00;99719.25;;;0.90;100.00
24762;BME280;12865;51.934;10.330;2023-01-27T02:02:48;99722.63;;;0.92;100.00
24762;BME280;12865;51.934;10.330;2023-01-27T02:05:36;99730.25;;;0.77;100.00
24762;BME280;12865;51.934;10.330;2023-01-27T02:08:29;99724.09;;;0.78;100.00
24762;BME280;12865;51.934;10.330;2023-01-27T02:11:15;99721.88;;;0.90;100.00
24762;BME280;12865;51.934;10.330;2023-01-27T02:14:01;99722.84;;;0.87;100.00
24762;BME280;12865;51.934;10.330;2023-01-27T02:16:47;99729.22;;;0.82;100.00
24762;BME280;12865;51.934;10.330;2023-01-27T02:19:48;99726.84;;;0.96;100.00
24762;BME280;12865;51.934;10.330;2023-01-27T02:28:21;99726.13;;;0.72;100.00
24762;BME280;12865;51.934;10.330;2023-01-27T02:31:07;99723.00;;;0.84;100.00
24762;BME280;12865;51.934;10.330;2023-01-27T02:33:57;99725.97;;;0.76;100.00
24762;BME280;12865;51.934;10.330;2023-01-27T02:36:47;99726.72;;;0.78;100.00
24762;BME280;12865;51.934;10.330;2023-01-27T02:39:39;99722.16;;;0.84;100.00
24762;BME280;12865;51.934;10.330;2023-01-27T02:42:27;99721.78;;;0.91;100.00
24762;BME280;12865;51.934;10.330;2023-01-27T02:45:13;99727.47;;;0.82;100.00
24762;BME280;12865;51.934;10.330;2023-01-27T02:47:58;99721.34;;;1.02;100.00
24762;BME280;12865;51.934;10.330;2023-01-27T02:50:44;99721.03;;;0.89;100.00
24762;BME280;12865;51.934;10.330;2023-01-27T02:53:30;99735.59;;;0.96;100.00
24762;BME280;12865;51.934;10.330;2023-01-27T02:56:15;99732.38;;;0.90;100.00
24762;BME280;12865;51.934;10.330;2023-01-27T02:59:02;99740.06;;;1.13;100.00
24762;BME280;12865;51.934;10.330;2023-01-27T03:01:47;99741.34;;;1.04;100.00
24762;BME280;12865;51.934;10.330;2023-01-27T03:04:33;99741.00;;;0.92;100.00
24762;BME280;12865;51.934;10.330;2023-01-27T03:07:23;99749.47;;;0.78;100.00
24762;BME280;12865;51.934;10.330;2023-01-27T03:10:09;99746.81;;;0.79;100.00
24762;BME280;12865;51.934;10.330;2023-01-27T03:12:55;99753.69;;;0.82;100.00
24762;BME280;12865;51.934;10.330;2023-01-27T03:15:40;99750.28;;;0.80;100.00
24762;BME280;12865;51.934;10.330;2023-01-27T03:18:47;99750.66;;;0.71;100.00
24762;BME280;12865;51.934;10.330;2023-01-27T03:21:34;99751.72;;;0.67;100.00
24762;BME280;12865;51.934;10.330;2023-01-27T03:24:19;99754.41;;;0.65;100.00
24762;BME280;12865;51.934;10.330;2023-01-27T03:27:05;99751.59;;;0.70;100.00
24762;BME280;12865;51.934;10.330;2023-01-27T03:29:51;99759.38;;;0.71;100.00
24762;BME280;12865;51.934;10.330;2023-01-27T03:32:39;99760.97;;;0.75;100.00
24762;BME280;12865;51.934;10.330;2023-01-27T03:35:31;99761.84;;;0.76;100.00
24762;BME280;12865;51.934;10.330;2023-01-27T03:38:24;99759.38;;;0.71;100.00
24762;BME280;12865;51.934;10.330;2023-01-27T03:41:28;99763.19;;;0.64;100.00
24762;BME280;12865;51.934;10.330;2023-01-27T03:44:33;99769.13;;;0.69;100.00
24762;BME280;12865;51.934;10.330;2023-01-27T03:47:37;99761.63;;;0.81;100.00
24762;BME280;12865;51.934;10.330;2023-01-27T03:50:23;99766.56;;;0.88;100.00
24762;BME280;12865;51.934;10.330;2023-01-27T03:53:15;99773.50;;;0.89;100.00
24762;BME280;12865;51.934;10.330;2023-01-27T03:56:01;99774.75;;;0.81;100.00
24762;BME280;12865;51.934;10.330;2023-01-27T03:58:48;99769.72;;;0.76;100.00
24762;BME280;12865;51.934;10.330;2023-01-27T04:01:34;99774.16;;;0.74;100.00
24762;BME280;12865;51.934;10.330;2023-01-27T04:04:19;99769.88;;;0.71;100.00
24762;BME280;12865;51.934;10.330;2023-01-27T04:07:24;99774.44;;;0.68;100.00
24762;BME280;12865;51.934;10.330;2023-01-27T04:10:10;99775.28;;;0.68;100.00
24762;BME280;12865;51.934;10.330;2023-01-27T04:12:55;99764.03;;;0.65;100.00
24762;BME280;12865;51.934;10.330;2023-01-27T04:15:41;99764.78;;;0.68;100.00
24762;BME280;12865;51.934;10.330;2023-01-27T04:18:26;99770.69;;;0.73;100.00
24762;BME280;12865;51.934;10.330;2023-01-27T04:21:12;99770.56;;;0.76;100.00
24762;BME280;12865;51.934;10.330;2023-01-27T04:23:58;99771.34;;;0.78;100.00
24762;BME280;12865;51.934;10.330;2023-01-27T04:26:45;99774.22;;;0.93;100.00
24762;BME280;12865;51.934;10.330;2023-01-27T04:29:32;99777.25;;;1.04;100.00
24762;BME280;12865;51.934;10.330;2023-01-27T04:32:21;99787.50;;;0.90;100.00
24762;BME280;12865;51.934;10.330;2023-01-27T04:35:07;99786.97;;;1.02;100.00
24762;BME280;12865;51.934;10.330;2023-01-27T04:37:52;99776.84;;;0.93;100.00
24762;BME280;12865;51.934;10.330;2023-01-27T04:40:38;99787.06;;;0.99;100.00
24762;BME280;12865;51.934;10.330;2023-01-27T04:43:24;99790.72;;;0.96;100.00
24762;BME280;12865;51.934;10.330;2023-01-27T04:46:09;99790.03;;;0.91;100.00
24762;BME280;12865;51.934;10.330;2023-01-27T04:48:55;99796.72;;;0.98;100.00
24762;BME280;12865;51.934;10.330;2023-01-27T04:51:41;99793.44;;;0.93;100.00
24762;BME280;12865;51.934;10.330;2023-01-27T04:54:26;99796.22;;;0.90;100.00
24762;BME280;12865;51.934;10.330;2023-01-27T04:57:12;99805.59;;;0.96;100.00
24762;BME280;12865;51.934;10.330;2023-01-27T04:59:58;99806.84;;;0.87;100.00
24762;BME280;12865;51.934;10.330;2023-01-27T05:02:43;99806.78;;;0.89;100.00
24762;BME280;12865;51.934;10.330;2023-01-27T05:05:29;99811.22;;;0.87;100.00
24762;BME280;12865;51.934;10.330;2023-01-27T05:08:14;99811.22;;;0.87;100.00
24762;BME280;12865;51.934;10.330;2023-01-27T05:11:00;99820.81;;;0.88;100.00
24762;BME280;12865;51.934;10.330;2023-01-27T05:13:46;99816.97;;;0.96;100.00
24762;BME280;12865;51.934;10.330;2023-01-27T05:16:32;99823.06;;;0.97;100.00
24762;BME280;12865;51.934;10.330;2023-01-27T05:19:18;99816.38;;;0.90;100.00
24762;BME280;12865;51.934;10.330;2023-01-27T05:22:03;99808.75;;;1.04;100.00
24762;BME280;12865;51.934;10.330;2023-01-27T05:24:49;99818.84;;;0.93;100.00
24762;BME280;12865;51.934;10.330;2023-01-27T05:27:35;99824.28;;;0.88;100.00
24762;BME280;12865;51.934;10.330;2023-01-27T05:30:20;99822.31;;;0.93;100.00
24762;BME280;12865;51.934;10.330;2023-01-27T05:33:06;99821.03;;;0.83;100.00
24762;BME280;12865;51.934;10.330;2023-01-27T05:35:52;99827.34;;;0.77;100.00
24762;BME280;12865;51.934;10.330;2023-01-27T05:38:39;99825.66;;;0.76;100.00
24762;BME280;12865;51.934;10.330;2023-01-27T05:41:25;99835.91;;;0.83;100.00
24762;BME280;12865;51.934;10.330;2023-01-27T05:44:12;99836.94;;;0.78;100.00
24762;BME280;12865;51.934;10.330;2023-01-27T05:46:58;99845.28;;;0.88;100.00
24762;BME280;12865;51.934;10.330;2023-01-27T05:49:43;99847.47;;;0.99;100.00
24762;BME280;12865;51.934;10.330;2023-01-27T05:52:29;99842.66;;;0.88;100.00
24762;BME280;12865;51.934;10.330;2023-01-27T05:55:15;99848.97;;;0.84;100.00
24762;BME280;12865;51.934;10.330;2023-01-27T05:58:01;99843.72;;;0.84;100.00
24762;BME280;12865;51.934;10.330;2023-01-27T06:00:46;99843.72;;;0.84;100.00
24762;BME280;12865;51.934;10.330;2023-01-27T06:03:33;99851.50;;;0.86;100.00
24762;BME280;12865;51.934;10.330;2023-01-27T06:06:20;99856.09;;;0.81;100.00
24762;BME280;12865;51.934;10.330;2023-01-27T06:09:06;99855.31;;;0.78;100.00
24762;BME280;12865;51.934;10.330;2023-01-27T06:11:52;99861.47;;;0.77;100.00
24762;BME280;12865;51.934;10.330;2023-01-27T06:14:37;99865.03;;;0.76;100.00
24762;BME280;12865;51.934;10.330;2023-01-27T06:17:23;99866.91;;;0.73;100.00
24762;BME280;12865;51.934;10.330;2023-01-27T06:20:10;99869.53;;;0.73;100.00
24762;BME280;12865;51.934;10.330;2023-01-27T06:22:56;99864.34;;;0.71;100.00
24762;BME280;12865;51.934;10.330;2023-01-27T06:25:46;99866.06;;;0.72;100.00
24762;BME280;12865;51.934;10.330;2023-01-27T06:28:32;99869.59;;;0.71;100.00
24762;BME280;12865;51.934;10.330;2023-01-27T06:31:20;99874.78;;;0.73;100.00
24762;BME280;12865;51.934;10.330;2023-01-27T06:34:06;99875.59;;;0.75;100.00
24762;BME280;12865;51.934;10.330;2023-01-27T06:36:52;99873.03;;;0.73;100.00
24762;BME280;12865;51.934;10.330;2023-01-27T06:39:38;99877.41;;;0.73;100.00
24762;BME280;12865;51.934;10.330;2023-01-27T06:42:23;99878.31;;;0.72;100.00
24762;BME280;12865;51.934;10.330;2023-01-27T06:45:10;99882.72;;;0.71;100.00
24762;BME280;12865;51.934;10.330;2023-01-27T06:47:58;99883.63;;;0.70;100.00
24762;BME280;12865;51.934;10.330;2023-01-27T06:50:44;99881.84;;;0.71;100.00
24762;BME280;12865;51.934;10.330;2023-01-27T06:53:30;99877.41;;;0.73;100.00
24762;BME280;12865;51.934;10.330;2023-01-27T06:56:16;99899.38;;;0.70;100.00
24762;BME280;12865;51.934;10.330;2023-01-27T06:59:02;99893.28;;;0.70;100.00
24762;BME280;12865;51.934;10.330;2023-01-27T07:01:48;99899.47;;;0.69;100.00
24762;BME280;12865;51.934;10.330;2023-01-27T07:04:33;99894.25;;;0.67;100.00
24762;BME280;12865;51.934;10.330;2023-01-27T07:07:19;99904.75;;;0.67;100.00
24762;BME280;12865;51.934;10.330;2023-01-27T07:10:06;99902.13;;;0.67;100.00
24762;BME280;12865;51.934;10.330;2023-01-27T07:12:52;99906.53;;;0.67;100.00
24762;BME280;12865;51.934;10.330;2023-01-27T07:15:38;99912.63;;;0.67;100.00
24762;BME280;12865;51.934;10.330;2023-01-27T07:18:24;99911.78;;;0.67;100.00
24762;BME280;12865;51.934;10.330;2023-01-27T07:21:09;99917.06;;;0.65;100.00
24762;BME280;12865;51.934;10.330;2023-01-27T07:23:55;99914.41;;;0.67;100.00
24762;BME280;12865;51.934;10.330;2023-01-27T07:26:41;99910.06;;;0.66;100.00
24762;BME280;12865;51.934;10.330;2023-01-27T07:29:28;99913.66;;;0.63;100.00
24762;BME280;12865;51.934;10.330;2023-01-27T07:32:13;99915.25;;;0.67;100.00
24762;BME280;12865;51.934;10.330;2023-01-27T07:34:59;99927.06;;;0.77;100.00
24762;BME280;12865;51.934;10.330;2023-01-27T07:37:45;99921.97;;;0.74;100.00
24762;BME280;12865;51.934;10.330;2023-01-27T07:40:30;99926.41;;;0.72;100.00
24762;BME280;12865;51.934;10.330;2023-01-27T07:43:16;99934.34;;;0.71;100.00
24762;BME280;12865;51.934;10.330;2023-01-27T07:46:02;99936.00;;;0.73;100.00
24762;BME280;12865;51.934;10.330;2023-01-27T07:48:48;99932.31;;;0.77;100.00
24762;BME280;12865;51.934;10.330;2023-01-27T07:51:34;99936.81;;;0.75;100.00
24762;BME280;12865;51.934;10.330;2023-01-27T07:54:19;99939.44;;;0.75;100.00
24762;BME280;12865;51.934;10.330;2023-01-27T07:57:05;99934.94;;;0.77;100.00
24762;BME280;12865;51.934;10.330;2023-01-27T07:59:51;99945.34;;;0.81;100.00
24762;BME280;12865;51.934;10.330;2023-01-27T08:02:40;99946.25;;;0.79;100.00
24762;BME280;12865;51.934;10.330;2023-01-27T08:05:27;99936.56;;;0.82;100.00
24762;BME280;12865;51.934;10.330;2023-01-27T08:08:13;99940.88;;;0.83;100.00
24762;BME280;12865;51.934;10.330;2023-01-27T08:11:00;99948.72;;;0.84;100.00
24762;BME280;12865;51.934;10.330;2023-01-27T08:13:46;99951.19;;;0.87;100.00
24762;BME280;12865;51.934;10.330;2023-01-27T08:16:31;99952.72;;;0.93;100.00
24762;BME280;12865;51.934;10.330;2023-01-27T08:19:17;99955.09;;;0.99;100.00
24762;BME280;12865;51.934;10.330;2023-01-27T08:22:03;99957.81;;;0.97;100.00
24762;BME280;12865;51.934;10.330;2023-01-27T08:24:48;99952.47;;;0.99;100.00
24762;BME280;12865;51.934;10.330;2023-01-27T08:27:34;99965.44;;;1.03;100.00
24762;BME280;12865;51.934;10.330;2023-01-27T08:30:20;99963.56;;;1.05;100.00
24762;BME280;12865;51.934;10.330;2023-01-27T08:33:06;99962.84;;;1.02;100.00
24762;BME280;12865;51.934;10.330;2023-01-27T08:35:52;99972.38;;;1.04;100.00
24762;BME280;12865;51.934;10.330;2023-01-27T08:38:38;99968.91;;;1.04;100.00
24762;BME280;12865;51.934;10.330;2023-01-27T08:41:25;99967.03;;;1.06;100.00
24762;BME280;12865;51.934;10.330;2023-01-27T08:44:11;99976.53;;;1.10;100.00
24762;BME280;12865;51.934;10.330;2023-01-27T08:46:57;99979.09;;;1.11;100.00
24762;BME280;12865;51.934;10.330;2023-01-27T08:49:43;99975.53;;;1.12;100.00
24762;BME280;12865;51.934;10.330;2023-01-27T08:52:28;99978.78;;;1.19;100.00
24762;BME280;12865;51.934;10.330;2023-01-27T08:55:15;99979.63;;;1.19;100.00
24762;BME280;12865;51.934;10.330;2023-01-27T08:58:00;99979.56;;;1.21;100.00
24762;BME280;12865;51.934;10.330;2023-01-27T09:00:46;99984.81;;;1.21;100.00
24762;BME280;12865;51.934;10.330;2023-01-27T09:03:33;99986.53;;;1.22;100.00
24762;BME280;12865;51.934;10.330;2023-01-27T09:06:20;99993.38;;;1.26;100.00
24762;BME280;12865;51.934;10.330;2023-01-27T09:09:06;99990.75;;;1.26;100.00
24762;BME280;12865;51.934;10.330;2023-01-27T09:11:54;99995.06;;;1.27;100.00
24762;BME280;12865;51.934;10.330;2023-01-27T09:14:40;100001.06;;;1.31;100.00
24762;BME280;12865;51.934;10.330;2023-01-27T09:17:26;100007.03;;;1.34;100.00
24762;BME280;12865;51.934;10.330;2023-01-27T09:20:12;100003.44;;;1.37;100.00
24762;BME280;12865;51.934;10.330;2023-01-27T09:22:57;100008.50;;;1.41;100.00
24762;BME280;12865;51.934;10.330;2023-01-27T09:25:43;100010.34;;;1.39;100.00
24762;BME280;12865;51.934;10.330;2023-01-27T09:28:29;100007.63;;;1.41;100.00
24762;BME280;12865;51.934;10.330;2023-01-27T09:31:14;100013.75;;;1.41;100.00
24762;BME280;12865;51.934;10.330;2023-01-27T09:34:00;100019.00;;;1.41;100.00
24762;BME280;12865;51.934;10.330;2023-01-27T09:36:52;100022.44;;;1.43;100.00
24762;BME280;12865;51.934;10.330;2023-01-27T09:39:42;100013.63;;;1.44;100.00
24762;BME280;12865;51.934;10.330;2023-01-27T09:42:50;100018.81;;;1.46;100.00
24762;BME280;12865;51.934;10.330;2023-01-27T09:46:05;100024.00;;;1.47;100.00
24762;BME280;12865;51.934;10.330;2023-01-27T09:55:29;100022.16;;;1.49;100.00
24762;BME280;12865;51.934;10.330;2023-01-27T09:58:45;100025.59;;;1.51;100.00
24762;BME280;12865;51.934;10.330;2023-01-27T10:02:07;100028.94;;;1.55;100.00
24762;BME280;12865;51.934;10.330;2023-01-27T10:05:26;100026.31;;;1.55;100.00
24762;BME280;12865;51.934;10.330;2023-01-27T10:08:41;100029.75;;;1.57;100.00
24762;BME280;12865;51.934;10.330;2023-01-27T10:14:41;100032.16;;;1.62;100.00
24762;BME280;12865;51.934;10.330;2023-01-27T10:20:42;100031.94;;;1.68;100.00
24762;BME280;12865;51.934;10.330;2023-01-27T10:23:53;100031.94;;;1.68;100.00
24762;BME280;12865;51.934;10.330;2023-01-27T10:26:50;100032.53;;;1.74;100.00
24762;BME280;12865;51.934;10.330;2023-01-27T10:29:44;100031.72;;;1.72;100.00
24762;BME280;12865;51.934;10.330;2023-01-27T10:35:46;100035.94;;;1.76;100.00
24762;BME280;12865;51.934;10.330;2023-01-27T10:38:38;100036.13;;;1.72;100.00
24762;BME280;12865;51.934;10.330;2023-01-27T10:48:04;100018.25;;;2.00;100.00
24762;BME280;12865;51.934;10.330;2023-01-27T10:54:08;100017.66;;;2.14;100.00
24762;BME280;12865;51.934;10.330;2023-01-27T10:56:59;100011.25;;;2.19;100.00
24762;BME280;12865;51.934;10.330;2023-01-27T11:00:00;100015.50;;;2.23;100.00
24762;BME280;12865;51.934;10.330;2023-01-27T11:03:06;100011.00;;;2.25;100.00
24762;BME280;12865;51.934;10.330;2023-01-27T11:05:57;100008.50;;;2.22;100.00
24762;BME280;12865;51.934;10.330;2023-01-27T11:08:46;100004.28;;;2.18;100.00
24762;BME280;12865;51.934;10.330;2023-01-27T11:11:33;100003.88;;;2.27;100.00
24762;BME280;12865;51.934;10.330;2023-01-27T11:14:43;99994.81;;;2.34;100.00
24762;BME280;12865;51.934;10.330;2023-01-27T11:17:56;99998.56;;;2.29;100.00
24762;BME280;12865;51.934;10.330;2023-01-27T11:20:49;100000.97;;;2.33;100.00
24762;BME280;12865;51.934;10.330;2023-01-27T11:23:43;100000.00;;;2.36;100.00
24762;BME280;12865;51.934;10.330;2023-01-27T11:26:54;100001.56;;;2.40;100.00
24762;BME280;12865;51.934;10.330;2023-01-27T11:29:47;100002.25;;;2.25;100.00
24762;BME280;12865;51.934;10.330;2023-01-27T11:32:56;100002.97;;;2.28;100.00
24762;BME280;12865;51.934;10.330;2023-01-27T11:35:44;100003.09;;;2.25;100.00
24762;BME280;12865;51.934;10.330;2023-01-27T11:38:30;100008.09;;;2.31;100.00
24762;BME280;12865;51.934;10.330;2023-01-27T11:41:15;100002.34;;;2.23;100.00
24762;BME280;12865;51.934;10.330;2023-01-27T11:44:05;100007.75;;;2.39;100.00
24762;BME280;12865;51.934;10.330;2023-01-27T11:46:55;100003.88;;;2.27;100.00
24762;BME280;12865;51.934;10.330;2023-01-27T11:49:43;100000.97;;;2.33;100.00
24762;BME280;12865;51.934;10.330;2023-01-27T11:52:31;100005.88;;;2.22;100.00
24762;BME280;12865;51.934;10.330;2023-01-27T11:55:22;100009.59;;;2.37;100.00
24762;BME280;12865;51.934;10.330;2023-01-27T11:58:16;100009.03;;;2.30;100.00
24762;BME280;12865;51.934;10.330;2023-01-27T12:01:16;100012.41;;;2.32;100.00
24762;BME280;12865;51.934;10.330;2023-01-27T12:07:34;100007.44;;;2.26;100.00
24762;BME280;12865;51.934;10.330;2023-01-27T12:10:33;100008.00;;;2.14;100.00
24762;BME280;12865;51.934;10.330;2023-01-27T12:13:23;100014.97;;;2.15;100.00
24762;BME280;12865;51.934;10.330;2023-01-27T12:16:10;100016.41;;;2.22;100.00
24762;BME280;12865;51.934;10.330;2023-01-27T12:19:02;100003.09;;;2.25;100.00
24762;BME280;12865;51.934;10.330;2023-01-27T12:21:51;100007.66;;;2.22;100.00
24762;BME280;12865;51.934;10.330;2023-01-27T12:24:40;100006.06;;;2.18;100.00
24762;BME280;12865;51.934;10.330;2023-01-27T12:27:38;100004.22;;;2.20;100.00
24762;BME280;12865;51.934;10.330;2023-01-27T12:30:27;100004.81;;;2.26;100.00
24762;BME280;12865;51.934;10.330;2023-01-27T12:33:22;99999.13;;;2.17;100.00
24762;BME280;12865;51.934;10.330;2023-01-27T12:36:15;99993.25;;;2.30;100.00
24762;BME280;12865;51.934;10.330;2023-01-27T12:39:01;100004.81;;;2.26;100.00
24762;BME280;12865;51.934;10.330;2023-01-27T12:41:47;100002.66;;;2.16;100.00
24762;BME280;12865;51.934;10.330;2023-01-27T12:44:40;100000.09;;;2.14;100.00
24762;BME280;12865;51.934;10.330;2023-01-27T12:47:28;99999.75;;;2.22;100.00
24762;BME280;12865;51.934;10.330;2023-01-27T12:53:35;99996.63;;;2.14;100.00
24762;BME280;12865;51.934;10.330;2023-01-27T12:56:22;99996.25;;;2.03;100.00
24762;BME280;12865;51.934;10.330;2023-01-27T12:59:16;99996.69;;;2.12;100.00
24762;BME280;12865;51.934;10.330;2023-01-27T13:02:16;99994.69;;;2.17;100.00
24762;BME280;12865;51.934;10.330;2023-01-27T13:05:04;99992.28;;;2.13;100.00
24762;BME280;12865;51.934;10.330;2023-01-27T13:07:52;99990.56;;;2.12;100.00
24762;BME280;12865;51.934;10.330;2023-01-27T13:10:38;99993.78;;;1.98;100.00
24762;BME280;12865;51.934;10.330;2023-01-27T13:13:25;99996.50;;;1.96;100.00
24762;BME280;12865;51.934;10.330;2023-01-27T13:18:39;99997.50;;;1.94;100.00
24762;BME280;12865;51.934;10.330;2023-01-27T13:21:34;99996.44;;;1.98;100.00
24762;BME280;12865;51.934;10.330;2023-01-27T13:24:30;99999.31;;;1.92;100.00
24762;BME280;12865;51.934;10.330;2023-01-27T13:27:19;99999.78;;;2.02;100.00
24762;BME280;12865;51.934;10.330;2023-01-27T13:30:15;100007.59;;;1.83;100.00
24762;BME280;12865;51.934;10.330;2023-01-27T13:33:25;100005.22;;;1.97;100.00
24762;BME280;12865;51.934;10.330;2023-01-27T13:36:34;100011.19;;;1.82;100.00
24762;BME280;12865;51.934;10.330;2023-01-27T13:42:50;100012.47;;;1.92;100.00
24762;BME280;12865;51.934;10.330;2023-01-27T13:48:47;100021.94;;;1.76;100.00
24762;BME280;12865;51.934;10.330;2023-01-27T13:51:35;100026.16;;;1.80;100.00
24762;BME280;12865;51.934;10.330;2023-01-27T13:54:21;100024.31;;;1.82;100.00
24762;BME280;12865;51.934;10.330;2023-01-27T14:00:26;100027.72;;;1.84;100.00
24762;BME280;12865;51.934;10.330;2023-01-27T14:06:56;100028.03;;;1.76;100.00
24762;BME280;12865;51.934;10.330;2023-01-27T14:16:18;100026.84;;;1.83;100.00
24762;BME280;12865;51.934;10.330;2023-01-27T14:19:25;100025.81;;;1.87;100.00
24762;BME280;12865;51.934;10.330;2023-01-27T14:25:17;100032.66;;;1.91;100.00
24762;BME280;12865;51.934;10.330;2023-01-27T14:30:59;100046.59;;;1.73;100.00
24762;BME280;12865;51.934;10.330;2023-01-27T14:34:10;100038.75;;;1.72;100.00
24762;BME280;12865;51.934;10.330;2023-01-27T14:45:42;100050.75;;;1.57;100.00
24762;BME280;12865;51.934;10.330;2023-01-27T14:51:38;100049.53;;;1.66;100.00
24762;BME280;12865;51.934;10.330;2023-01-27T14:54:56;100054.19;;;1.59;100.00
24762;BME280;12865;51.934;10.330;2023-01-27T15:01:26;100065.31;;;1.66;100.00
24762;BME280;12865;51.934;10.330;2023-01-27T15:07:14;100067.75;;;1.48;100.00
24762;BME280;12865;51.934;10.330;2023-01-27T15:10:21;100075.25;;;1.57;100.00
24762;BME280;12865;51.934;10.330;2023-01-27T15:13:30;100079.13;;;1.49;100.00
24762;BME280;12865;51.934;10.330;2023-01-27T15:16:48;100081.75;;;1.49;100.00
24762;BME280;12865;51.934;10.330;2023-01-27T15:23:27;100101.25;;;1.43;100.00
24762;BME280;12865;51.934;10.330;2023-01-27T15:26:24;100096.25;;;1.37;100.00
24762;BME280;12865;51.934;10.330;2023-01-27T15:29:14;100106.75;;;1.37;100.00
24762;BME280;12865;51.934;10.330;2023-01-27T15:32:24;100097.94;;;1.38;100.00
24762;BME280;12865;51.934;10.330;2023-01-27T15:35:32;100100.72;;;1.34;100.00
24762;BME280;12865;51.934;10.330;2023-01-27T15:38:28;100117.25;;;1.37;100.00
24762;BME280;12865;51.934;10.330;2023-01-27T15:41:16;100110.28;;;1.36;100.00
24762;BME280;12865;51.934;10.330;2023-01-27T15:47:22;100111.81;;;1.42;100.00
24762;BME280;12865;51.934;10.330;2023-01-27T15:50:19;100117.31;;;1.36;100.00
24762;BME280;12865;51.934;10.330;2023-01-27T15:53:13;100121.09;;;1.29;100.00
24762;BME280;12865;51.934;10.330;2023-01-27T15:56:01;100125.47;;;1.28;100.00
24762;BME280;12865;51.934;10.330;2023-01-27T15:58:56;100118.41;;;1.30;100.00
24762;BME280;12865;51.934;10.330;2023-01-27T16:01:43;100117.44;;;1.33;100.00
24762;BME280;12865;51.934;10.330;2023-01-27T16:04:31;100128.09;;;1.28;100.00
24762;BME280;12865;51.934;10.330;2023-01-27T16:07:25;100121.28;;;1.24;100.00
24762;BME280;12865;51.934;10.330;2023-01-27T16:10:17;100128.09;;;1.28;100.00
24762;BME280;12865;51.934;10.330;2023-01-27T16:13:26;100118.47;;;1.29;100.00
24762;BME280;12865;51.934;10.330;2023-01-27T16:19:05;100135.03;;;1.31;100.00
24762;BME280;12865;51.934;10.330;2023-01-27T16:22:05;100138.31;;;1.36;100.00
24762;BME280;12865;51.934;10.330;2023-01-27T16:25:11;100137.66;;;1.31;100.00
24762;BME280;12865;51.934;10.330;2023-01-27T16:28:14;100127.81;;;1.36;100.00